Time;durP1;ratioP1;P1;durP2;ratioP2;P2;SDS_P1;SDS_P2;PMS_P1;PMS_P2;Temp;Humidity;BMP_temperature;BMP_pressure;BME280_temperature;BME280_humidity;BME280_pressure;Samples;Min_cycle;Max_cycle;Signal;HPM_P1;HPM_P2
2022/03/07 00:01:52;;;;;;;7.18;4.03;;;;;;;6.49;44.50;102689.13;5102371;28;20072;-59
2022/03/07 00:04:20;;;;;;;7.88;4.13;;;;;;;6.49;44.79;102688.31;5089915;28;20052;-59
2022/03/07 00:06:48;;;;;;;5.88;3.55;;;;;;;6.47;44.75;102683.09;5104017;28;20078;-60
2022/03/07 00:09:16;;;;;;;4.85;3.47;;;;;;;6.45;44.77;102689.59;5101349;28;20044;-60
2022/03/07 00:11:44;;;;;;;7.30;3.92;;;;;;;6.43;44.83;102681.72;5104281;28;20075;-60
2022/03/07 00:14:12;;;;;;;6.95;4.20;;;;;;;6.46;44.96;102684.09;5103760;28;20044;-58
2022/03/07 00:16:41;;;;;;;7.00;4.18;;;;;;;6.40;44.76;102675.84;5098179;28;20076;-59
2022/03/07 00:19:09;;;;;;;7.15;4.75;;;;;;;6.45;44.60;102678.91;5102381;28;20040;-59
2022/03/07 00:21:37;;;;;;;6.25;3.90;;;;;;;6.42;44.64;102682.72;5091639;28;20519;-58
2022/03/07 00:24:06;;;;;;;7.97;4.35;;;;;;;6.42;44.79;102679.19;5100608;28;20087;-59
2022/03/07 00:26:35;;;;;;;6.88;4.20;;;;;;;6.39;44.87;102668.81;5099755;28;20079;-59
2022/03/07 00:29:04;;;;;;;6.95;4.15;;;;;;;6.41;44.83;102675.69;5101589;28;20477;-60
2022/03/07 00:31:32;;;;;;;8.00;4.43;;;;;;;6.41;44.76;102680.19;5096837;28;20056;-59
2022/03/07 00:34:01;;;;;;;9.45;3.80;;;;;;;6.39;44.56;102680.34;5098477;28;20063;-58
2022/03/07 00:36:28;;;;;;;7.57;4.25;;;;;;;6.37;44.88;102681.47;5096210;28;20047;-59
2022/03/07 00:38:56;;;;;;;7.90;4.65;;;;;;;6.35;44.72;102678.13;5101519;28;20501;-58
2022/03/07 00:41:24;;;;;;;8.43;4.40;;;;;;;6.34;44.50;102689.78;5101285;28;20347;-59
2022/03/07 00:43:52;;;;;;;8.48;4.10;;;;;;;6.30;44.78;102683.06;5102454;28;20377;-60
2022/03/07 00:46:20;;;;;;;7.40;4.30;;;;;;;6.30;44.76;102683.06;5101149;28;20062;-60
2022/03/07 00:48:47;;;;;;;7.10;4.78;;;;;;;6.19;44.79;102673.44;5102468;28;20047;-59
2022/03/07 00:51:16;;;;;;;5.97;3.85;;;;;;;6.10;44.82;102663.63;5102504;28;20067;-58
2022/03/07 00:53:44;;;;;;;7.38;4.35;;;;;;;6.24;44.83;102697.00;5096209;28;20097;-58
2022/03/07 00:56:12;;;;;;;6.57;4.40;;;;;;;6.22;44.97;102693.66;5102061;28;20068;-58
2022/03/07 00:58:40;;;;;;;7.00;4.63;;;;;;;6.19;45.10;102692.97;5101098;28;20107;-58
2022/03/07 01:01:07;;;;;;;6.68;4.45;;;;;;;6.20;44.69;102683.13;5102977;28;20071;-59
2022/03/07 01:03:35;;;;;;;7.32;4.60;;;;;;;6.20;45.12;102683.97;5097328;28;20054;-58
2022/03/07 01:06:04;;;;;;;7.60;4.55;;;;;;;6.16;44.85;102692.41;5101656;28;20093;-59
2022/03/07 01:08:33;;;;;;;7.68;4.32;;;;;;;6.14;45.08;102697.91;5101575;28;20052;-59
2022/03/07 01:11:01;;;;;;;7.63;4.13;;;;;;;6.13;44.59;102700.72;5100588;28;20078;-59
2022/03/07 01:13:29;;;;;;;7.13;4.75;;;;;;;6.12;44.74;102697.19;5101405;28;20416;-59
2022/03/07 01:15:56;;;;;;;9.32;5.25;;;;;;;6.11;44.59;102702.69;5101796;28;20552;-60
2022/03/07 01:18:24;;;;;;;7.85;5.30;;;;;;;6.10;44.99;102698.34;5096641;28;20078;-59
2022/03/07 01:20:52;;;;;;;7.97;4.80;;;;;;;6.09;45.05;102696.66;5102778;28;20501;-59
2022/03/07 01:23:20;;;;;;;7.35;4.70;;;;;;;6.07;44.99;102701.31;5098127;28;20471;-57
2022/03/07 01:25:49;;;;;;;9.25;5.28;;;;;;;6.06;45.01;102694.28;5101078;28;20076;-59
2022/03/07 01:28:17;;;;;;;9.20;4.90;;;;;;;6.04;44.78;102694.44;5102391;28;20125;-60
2022/03/07 01:30:45;;;;;;;8.13;4.68;;;;;;;6.04;44.99;102694.44;5102612;28;20083;-60
2022/03/07 01:33:12;;;;;;;7.35;4.60;;;;;;;6.02;45.02;102690.22;5091910;28;20075;-59
2022/03/07 01:35:41;;;;;;;6.45;4.65;;;;;;;6.02;45.24;102690.22;5102120;28;20052;-59
2022/03/07 01:38:08;;;;;;;7.88;4.97;;;;;;;6.00;44.89;102689.53;5098135;28;20051;-59
2022/03/07 01:40:36;;;;;;;8.45;5.30;;;;;;;6.00;45.29;102684.19;5098632;28;20076;-59
2022/03/07 01:43:06;;;;;;;8.90;4.57;;;;;;;6.00;45.04;102684.19;5092375;28;20083;-59
2022/03/07 01:45:34;;;;;;;7.60;4.93;;;;;;;5.98;45.03;102679.00;5102557;28;20044;-60
2022/03/07 01:48:02;;;;;;;7.38;4.70;;;;;;;6.00;44.94;102686.84;5101364;28;20048;-59
2022/03/07 01:50:29;;;;;;;7.35;5.25;;;;;;;5.97;44.91;102681.81;5101006;28;20048;-59
2022/03/07 01:52:57;;;;;;;8.27;5.30;;;;;;;5.95;44.90;102676.63;5097326;28;20086;-59
2022/03/07 01:55:28;;;;;;;9.63;5.32;;;;;;;5.96;45.40;102678.31;5102003;28;20042;-59
2022/03/07 01:57:56;;;;;;;9.27;5.07;;;;;;;5.93;44.92;102680.44;5101964;28;20076;-59
2022/03/07 02:00:27;;;;;;;8.13;5.35;;;;;;;5.91;45.38;102680.56;5097548;28;20075;-59
2022/03/07 02:02:55;;;;;;;8.65;4.85;;;;;;;5.88;45.16;102676.34;5093394;28;20080;-59
2022/03/07 02:05:24;;;;;;;10.27;4.65;;;;;;;5.88;45.08;102679.00;5098595;28;20040;-59
2022/03/07 02:07:52;;;;;;;8.07;5.05;;;;;;;5.87;45.19;102671.16;5100813;28;20052;-58
2022/03/07 02:10:19;;;;;;;9.77;4.97;;;;;;;5.88;45.41;102670.16;5101413;28;20075;-58
2022/03/07 02:12:47;;;;;;;8.05;4.65;;;;;;;5.87;45.49;102672.00;5101430;28;20556;-59
2022/03/07 02:15:18;;;;;;;9.90;4.88;;;;;;;5.85;45.27;102668.63;5100132;28;20052;-58
2022/03/07 02:17:47;;;;;;;8.70;5.03;;;;;;;5.85;45.20;102671.28;5097156;28;20043;-59
2022/03/07 02:20:16;;;;;;;8.32;5.03;;;;;;;5.84;45.62;102674.94;5095851;28;20084;-59
2022/03/07 02:22:45;;;;;;;10.00;5.03;;;;;;;5.83;45.72;102664.41;5101226;28;20091;-59
2022/03/07 02:25:13;;;;;;;9.13;5.88;;;;;;;5.83;45.55;102667.09;5095528;28;20083;-59
2022/03/07 02:27:40;;;;;;;8.60;4.93;;;;;;;5.81;45.35;102669.06;5105591;28;20044;-59
2022/03/07 02:30:10;;;;;;;8.23;5.25;;;;;;;5.79;45.75;102668.38;5103430;28;20090;-59
2022/03/07 02:32:41;;;;;;;11.13;5.18;;;;;;;5.78;45.72;102667.53;5105721;28;20044;-58
2022/03/07 02:35:10;;;;;;;10.18;5.00;;;;;;;5.78;45.74;102658.69;5105561;28;20040;-59
2022/03/07 02:37:41;;;;;;;7.95;4.97;;;;;;;5.75;45.69;102666.97;5106075;28;20063;-60
2022/03/07 02:40:11;;;;;;;6.75;4.65;;;;;;;5.75;45.48;102667.81;5099955;28;20104;-58
2022/03/07 02:42:59;;;;;;;8.27;4.68;;;;;;;5.76;45.32;102668.66;5105626;28;20465;-59
2022/03/07 02:45:27;;;;;;;9.68;5.30;;;;;;;5.75;45.34;102664.31;5105648;28;20040;-58
2022/03/07 02:47:54;;;;;;;9.02;5.38;;;;;;;5.72;45.62;102669.94;5102490;28;20064;-59
2022/03/07 02:50:22;;;;;;;12.15;6.18;;;;;;;5.69;45.70;102671.06;5103484;28;20059;-60
2022/03/07 02:52:50;;;;;;;9.00;5.30;;;;;;;5.68;46.15;102672.06;5096521;28;20082;-59
2022/03/07 02:55:19;;;;;;;8.35;4.93;;;;;;;5.68;46.00;102674.72;5103638;28;20303;-60
2022/03/07 02:57:47;;;;;;;6.40;4.65;;;;;;;5.65;46.53;102669.66;5104984;28;20051;-60
2022/03/07 03:00:15;;;;;;;7.45;5.10;;;;;;;5.65;46.38;102671.50;5105089;28;20076;-59
2022/03/07 03:02:43;;;;;;;7.47;4.53;;;;;;;5.66;46.13;102679.34;5102014;28;20095;-60
2022/03/07 03:05:11;;;;;;;6.88;5.15;;;;;;;5.60;45.71;102655.94;5094911;28;20531;-60
2022/03/07 03:07:38;;;;;;;10.98;5.13;;;;;;;5.65;45.81;102671.50;5105070;28;20060;-60
2022/03/07 03:10:08;;;;;;;7.97;4.53;;;;;;;5.64;45.77;102665.31;5103811;28;20068;-59
2022/03/07 03:12:37;;;;;;;6.88;4.80;;;;;;;5.63;45.83;102663.66;5092673;28;20055;-58
2022/03/07 03:15:06;;;;;;;8.10;4.85;;;;;;;5.64;45.86;102661.81;5104651;28;20066;-59
2022/03/07 03:17:34;;;;;;;9.93;5.03;;;;;;;5.61;45.58;102660.28;5097754;28;20052;-60
2022/03/07 03:20:02;;;;;;;9.48;5.03;;;;;;;5.60;46.48;102666.59;5104076;28;20051;-59
2022/03/07 03:22:29;;;;;;;7.97;5.00;;;;;;;5.60;46.27;102660.41;5099460;28;20059;-59
2022/03/07 03:24:57;;;;;;;12.35;5.95;;;;;;;5.57;45.88;102661.56;5103769;28;20071;-60
2022/03/07 03:27:25;;;;;;;7.47;4.68;;;;;;;5.54;46.38;102660.00;5103501;28;20078;-60
2022/03/07 03:29:56;;;;;;;9.07;5.32;;;;;;;5.54;46.53;102667.19;5104011;28;20074;-60
2022/03/07 03:32:25;;;;;;;9.50;5.10;;;;;;;5.51;46.35;102667.47;5104842;28;20072;-59
2022/03/07 03:34:56;;;;;;;8.55;5.25;;;;;;;5.49;46.66;102666.75;5104185;28;20060;-57
2022/03/07 03:37:25;;;;;;;8.25;5.18;;;;;;;5.49;46.05;102664.94;5101477;28;20040;-60
2022/03/07 03:39:54;;;;;;;8.93;5.00;;;;;;;5.49;46.50;102664.94;5102975;28;20076;-58
2022/03/07 03:42:22;;;;;;;9.52;5.18;;;;;;;5.49;45.86;102669.44;5098642;28;20048;-60
2022/03/07 03:44:50;;;;;;;8.10;4.65;;;;;;;5.48;46.15;102673.91;5095841;28;20055;-60
2022/03/07 03:47:19;;;;;;;8.45;5.35;;;;;;;5.47;46.54;102668.72;5104227;28;20048;-59
2022/03/07 03:49:47;;;;;;;9.20;4.72;;;;;;;5.48;46.64;102673.09;5103290;28;20249;-59
2022/03/07 03:52:15;;;;;;;11.63;5.40;;;;;;;5.46;46.30;102678.56;5100633;28;20071;-59
2022/03/07 03:54:42;;;;;;;9.77;5.10;;;;;;;5.45;46.13;102673.38;5103050;28;20515;-59
2022/03/07 03:57:10;;;;;;;11.90;4.82;;;;;;;5.44;46.21;102674.34;5101928;28;20497;-59
2022/03/07 03:59:38;;;;;;;7.72;5.10;;;;;;;5.43;46.52;102673.50;5103674;28;20082;-60
2022/03/07 04:02:06;;;;;;;7.80;4.85;;;;;;;5.41;46.69;102672.81;5103590;28;20082;-58
2022/03/07 04:04:35;;;;;;;7.80;4.85;;;;;;;5.41;46.27;102667.47;5101080;28;20051;-59
2022/03/07 04:07:06;;;;;;;12.00;5.50;;;;;;;5.41;46.19;102672.81;5101721;28;20336;-58
2022/03/07 04:09:33;;;;;;;7.30;4.60;;;;;;;5.39;46.49;102673.94;5097555;28;20123;-58
2022/03/07 04:12:01;;;;;;;10.85;5.07;;;;;;;5.36;46.11;102666.22;5103662;28;20052;-58
2022/03/07 04:14:29;;;;;;;10.18;5.88;;;;;;;5.32;47.03;102667.50;5103558;28;20048;-58
2022/03/07 04:16:57;;;;;;;9.15;5.22;;;;;;;5.34;46.91;102677.03;5100245;28;20127;-59
2022/03/07 04:19:26;;;;;;;8.57;5.10;;;;;;;5.35;46.33;102675.22;5096712;28;20060;-59
2022/03/07 04:21:56;;;;;;;8.77;5.05;;;;;;;5.34;46.65;102679.69;5103247;28;20138;-59
2022/03/07 04:24:30;;;;;;;12.77;5.03;;;;;;;5.31;46.57;102676.47;5102698;28;20425;-59
2022/03/07 04:26:59;;;;;;;9.88;5.68;;;;;;;5.28;46.46;102671.44;5102391;28;20040;-59
2022/03/07 04:29:27;;;;;;;10.98;5.95;;;;;;;5.28;46.46;102676.75;5100271;28;20067;-61
2022/03/07 04:31:55;;;;;;;8.30;5.20;;;;;;;5.26;47.07;102678.72;5101983;28;20051;-59
2022/03/07 04:34:23;;;;;;;9.85;5.25;;;;;;;5.22;46.84;102667.50;5102820;28;20040;-58
2022/03/07 04:36:51;;;;;;;9.20;6.18;;;;;;;5.28;46.22;102676.75;5093327;28;20048;-59
2022/03/07 04:39:20;;;;;;;8.20;4.85;;;;;;;5.27;46.27;102675.09;5101438;28;20048;-59
2022/03/07 04:41:48;;;;;;;7.13;4.63;;;;;;;5.26;47.13;102676.06;5099121;28;20075;-59
2022/03/07 04:44:16;;;;;;;8.10;4.97;;;;;;;5.26;46.44;102673.41;5100750;28;20097;-59
2022/03/07 04:46:44;;;;;;;8.88;5.35;;;;;;;5.26;46.42;102678.72;5103193;28;20052;-59
2022/03/07 04:49:12;;;;;;;7.60;4.72;;;;;;;5.25;46.93;102677.88;5099685;28;20507;-59
2022/03/07 04:51:45;;;;;;;7.78;4.88;;;;;;;5.24;47.01;102678.88;5102933;28;20044;-59
2022/03/07 04:54:14;;;;;;;8.10;4.97;;;;;;;5.23;47.25;102675.38;5097543;28;20048;-60
2022/03/07 04:56:46;;;;;;;7.53;4.65;;;;;;;5.23;47.04;102663.88;5100966;28;20069;-60
2022/03/07 04:59:14;;;;;;;7.32;4.80;;;;;;;5.23;46.54;102670.03;5100992;28;20040;-59
2022/03/07 05:01:42;;;;;;;9.18;4.97;;;;;;;5.21;46.66;102666.66;5102985;28;20075;-60
2022/03/07 05:04:10;;;;;;;9.40;5.43;;;;;;;5.21;46.40;102669.34;5099079;28;20056;-58
2022/03/07 05:06:38;;;;;;;10.40;5.30;;;;;;;5.19;46.90;102668.66;5102892;28;20056;-60
2022/03/07 05:09:06;;;;;;;8.82;4.53;;;;;;;5.20;47.18;102672.97;5100977;28;20047;-59
2022/03/07 05:11:33;;;;;;;8.52;5.38;;;;;;;5.19;47.49;102671.34;5101936;28;20086;-60
2022/03/07 05:14:02;;;;;;;7.55;4.93;;;;;;;5.18;47.54;102666.16;5102220;28;20115;-58
2022/03/07 05:16:30;;;;;;;7.18;5.10;;;;;;;5.17;46.87;102670.63;5102686;28;20044;-58
2022/03/07 05:18:58;;;;;;;7.03;4.85;;;;;;;5.17;47.36;102665.31;5099101;28;20162;-60
2022/03/07 05:21:26;;;;;;;8.15;5.47;;;;;;;5.17;46.55;102664.47;5102648;28;20086;-60
2022/03/07 05:23:54;;;;;;;8.52;5.07;;;;;;;5.15;47.20;102666.44;5093084;28;20159;-60
2022/03/07 05:26:21;;;;;;;8.55;5.65;;;;;;;5.14;47.36;102656.75;5096785;28;20465;-59
2022/03/07 05:28:49;;;;;;;8.45;5.65;;;;;;;5.15;47.41;102656.59;5097387;28;20138;-59
2022/03/07 05:31:19;;;;;;;7.57;5.50;;;;;;;5.13;46.58;102655.91;5102059;28;20055;-58
2022/03/07 05:33:46;;;;;;;15.40;5.35;;;;;;;5.11;46.92;102660.53;5096422;28;20048;-58
2022/03/07 05:36:14;;;;;;;9.52;5.13;;;;;;;5.12;47.05;102664.03;5099964;28;20090;-58
2022/03/07 05:38:42;;;;;;;7.05;4.88;;;;;;;5.09;47.18;102659.84;5099227;28;20082;-60
2022/03/07 05:41:10;;;;;;;9.68;5.25;;;;;;;5.09;46.83;102659.00;5101846;28;20072;-59
2022/03/07 05:43:38;;;;;;;8.40;5.00;;;;;;;5.09;46.93;102667.84;5100868;28;20048;-59
2022/03/07 05:46:10;;;;;;;12.07;5.47;;;;;;;5.08;47.15;102675.97;5086185;28;20048;-59
2022/03/07 05:48:39;;;;;;;8.45;5.18;;;;;;;5.06;47.19;102678.78;5099334;28;20055;-58
2022/03/07 05:51:06;;;;;;;8.35;5.82;;;;;;;5.06;46.98;102676.13;5100542;28;20500;-60
2022/03/07 05:53:34;;;;;;;8.27;5.38;;;;;;;5.03;47.24;102678.22;5098804;28;20059;-58
2022/03/07 05:56:02;;;;;;;8.90;5.70;;;;;;;5.01;47.46;102675.69;5101003;28;20055;-59
2022/03/07 05:58:30;;;;;;;8.98;5.55;;;;;;;5.02;47.60;102682.69;5097820;28;20511;-59
2022/03/07 06:00:57;;;;;;;9.45;5.78;;;;;;;4.97;46.79;102670.78;5097310;28;20048;-58
2022/03/07 06:03:25;;;;;;;13.45;5.63;;;;;;;5.00;47.17;102686.50;5098928;28;20426;-59
2022/03/07 06:05:54;;;;;;;10.18;5.63;;;;;;;4.99;46.68;102676.81;5100978;28;20052;-58
2022/03/07 06:08:22;;;;;;;8.82;5.32;;;;;;;5.00;47.62;102689.16;5099828;28;20116;-62
2022/03/07 06:10:50;;;;;;;7.10;5.32;;;;;;;4.98;47.56;102686.63;5097486;28;20055;-60
2022/03/07 06:13:19;;;;;;;9.40;6.10;;;;;;;4.98;47.51;102685.78;5100290;28;20044;-59
2022/03/07 06:15:47;;;;;;;10.52;5.70;;;;;;;4.99;47.64;102682.16;5098901;28;20048;-59
2022/03/07 06:18:14;;;;;;;8.90;5.53;;;;;;;5.09;47.33;102690.97;5098736;28;20040;-59
2022/03/07 06:20:42;;;;;;;9.70;5.72;;;;;;;5.20;46.71;102694.31;5089785;28;20044;-59
2022/03/07 06:23:11;;;;;;;9.05;6.15;;;;;;;5.34;46.32;102693.03;5100768;28;20085;-59
2022/03/07 06:25:39;;;;;;;6.97;5.50;;;;;;;5.49;46.09;102704.94;5093737;28;20059;-59
2022/03/07 06:28:06;;;;;;;14.10;6.63;;;;;;;5.63;45.29;102700.13;5097744;28;20083;-58
2022/03/07 06:30:35;;;;;;;8.57;5.75;;;;;;;5.75;45.15;102704.31;5089774;28;20056;-59
2022/03/07 06:33:02;;;;;;;7.45;5.38;;;;;;;5.90;44.89;102704.72;5096434;28;20084;-59
2022/03/07 06:35:30;;;;;;;8.05;5.80;;;;;;;5.95;44.79;102708.66;5098682;28;20107;-60
2022/03/07 06:37:58;;;;;;;9.52;5.43;;;;;;;6.07;44.69;102709.31;5099023;28;20090;-59
2022/03/07 06:40:27;;;;;;;8.23;5.07;;;;;;;6.07;44.46;102691.47;5089543;28;20079;-61
2022/03/07 06:42:55;;;;;;;8.00;5.68;;;;;;;6.30;43.94;102718.63;5092257;28;20109;-58
2022/03/07 06:45:23;;;;;;;10.63;6.13;;;;;;;6.38;43.88;102723.22;5091854;28;20068;-59
2022/03/07 06:47:51;;;;;;;8.15;5.75;;;;;;;6.39;43.68;102715.06;5097509;28;20048;-59
2022/03/07 06:50:18;;;;;;;9.82;5.97;;;;;;;6.52;43.32;102717.38;5099560;28;20068;-59
2022/03/07 06:52:46;;;;;;;7.95;5.68;;;;;;;6.53;43.44;102714.56;5089414;28;20194;-59
2022/03/07 06:55:14;;;;;;;8.73;6.18;;;;;;;6.54;43.53;102718.06;5100099;28;20153;-59
2022/03/07 06:57:43;;;;;;;9.70;5.45;;;;;;;6.38;43.86;102718.72;5099562;28;20086;-59
2022/03/07 07:00:14;;;;;;;11.30;5.75;;;;;;;6.23;44.34;102722.88;5092407;28;20055;-60
2022/03/07 07:02:42;;;;;;;7.75;5.75;;;;;;;6.07;44.75;102726.16;5099428;28;20076;-59
2022/03/07 07:05:11;;;;;;;9.45;5.75;;;;;;;5.93;44.83;102731.97;5097461;28;20097;-59
2022/03/07 07:07:39;;;;;;;9.80;5.38;;;;;;;5.83;44.96;102731.97;5100998;28;20075;-60
2022/03/07 07:10:08;;;;;;;11.23;5.90;;;;;;;5.77;45.19;102734.38;5096695;28;20497;-58
2022/03/07 07:12:36;;;;;;;7.85;5.20;;;;;;;5.63;45.76;102722.31;5094470;28;20399;-60
2022/03/07 07:15:07;;;;;;;15.25;6.30;;;;;;;5.55;45.82;102724.84;5099517;28;20104;-59
2022/03/07 07:17:35;;;;;;;7.22;5.68;;;;;;;5.50;46.40;102719.94;5106567;28;20055;-58
2022/03/07 07:20:03;;;;;;;10.02;5.82;;;;;;;5.47;45.65;102727.41;5100790;28;20113;-59
2022/03/07 07:22:31;;;;;;;7.85;5.30;;;;;;;5.42;46.33;102730.50;5098976;28;20452;-58
2022/03/07 07:24:59;;;;;;;11.23;6.18;;;;;;;5.38;45.84;102723.75;5103752;28;20112;-59
2022/03/07 07:27:28;;;;;;;9.35;6.10;;;;;;;5.37;46.18;102724.75;5104184;28;20382;-58
2022/03/07 07:29:56;;;;;;;7.45;5.70;;;;;;;5.35;46.37;102731.19;5101175;28;20085;-61
2022/03/07 07:32:26;;;;;;;8.57;5.88;;;;;;;5.32;46.69;102729.66;5105921;28;20494;-59
2022/03/07 07:34:53;;;;;;;9.90;6.30;;;;;;;5.17;46.42;102705.28;5105107;28;20055;-59
2022/03/07 07:37:21;;;;;;;14.38;6.45;;;;;;;5.26;46.86;102721.38;5095650;28;20055;-59
2022/03/07 07:39:49;;;;;;;10.20;5.45;;;;;;;5.24;46.97;102721.53;5103850;28;20058;-60
2022/03/07 07:42:17;;;;;;;11.60;7.05;;;;;;;5.22;46.73;102720.81;5100415;28;20051;-59
2022/03/07 07:44:45;;;;;;;11.48;5.93;;;;;;;5.14;46.68;102723.38;5105472;28;20072;-59
2022/03/07 07:47:13;;;;;;;11.40;5.88;;;;;;;5.15;46.81;102723.25;5105091;28;20108;-59
2022/03/07 07:49:42;;;;;;;20.15;6.75;;;;;;;5.18;47.15;102733.63;5102246;28;20127;-60
2022/03/07 07:52:10;;;;;;;11.35;6.10;;;;;;;5.18;47.22;102738.09;5103736;28;20059;-60
2022/03/07 07:54:37;;;;;;;7.32;5.50;;;;;;;5.15;46.60;102741.91;5104203;28;20366;-60
2022/03/07 07:57:07;;;;;;;10.10;6.22;;;;;;;5.13;46.81;102743.84;5105103;28;20055;-59
2022/03/07 07:59:35;;;;;;;9.25;5.63;;;;;;;5.13;47.09;102743.84;5096140;28;20072;-59
2022/03/07 08:02:14;;;;;;;9.05;6.00;;;;;;;5.13;47.15;102741.19;5105404;28;20052;-58
2022/03/07 08:04:43;;;;;;;10.52;6.72;;;;;;;5.22;46.67;102742.97;5104109;28;20052;-59
2022/03/07 08:07:11;;;;;;;9.35;6.32;;;;;;;5.39;46.08;102743.25;5104508;28;20044;-60
2022/03/07 08:09:39;;;;;;;9.00;5.85;;;;;;;5.56;46.05;102740.72;5094440;28;20040;-60
2022/03/07 08:12:08;;;;;;;9.30;6.72;;;;;;;5.74;45.89;102742.66;5104873;28;20052;-58
2022/03/07 08:14:36;;;;;;;7.70;5.20;;;;;;;5.91;45.43;102747.28;5102712;28;20206;-59
2022/03/07 08:17:05;;;;;;;9.20;6.03;;;;;;;6.07;44.62;102744.84;5093281;28;20361;-60
2022/03/07 08:19:33;;;;;;;8.18;5.68;;;;;;;6.23;44.17;102746.06;5100170;28;20075;-60
2022/03/07 08:22:02;;;;;;;7.95;5.70;;;;;;;6.36;44.25;102743.91;5101267;28;20048;-60
2022/03/07 08:24:30;;;;;;;8.80;6.05;;;;;;;6.45;43.90;102756.34;5093393;28;20043;-57
2022/03/07 08:26:58;;;;;;;7.07;5.00;;;;;;;6.56;43.63;102752.66;5103971;28;20109;-59
2022/03/07 08:29:26;;;;;;;7.53;5.55;;;;;;;6.63;43.65;102751.06;5104866;28;20063;-59
2022/03/07 08:31:59;;;;;;;8.43;5.72;;;;;;;6.75;43.27;102753.38;5097964;28;20060;-60
2022/03/07 08:34:26;;;;;;;8.95;5.80;;;;;;;6.79;42.88;102751.25;5104242;28;20048;-59
2022/03/07 08:36:54;;;;;;;9.60;5.53;;;;;;;6.82;43.01;102753.63;5095200;28;20045;-60
2022/03/07 08:39:24;;;;;;;8.27;5.53;;;;;;;6.87;42.91;102751.34;5094507;28;20098;-60
2022/03/07 08:41:51;;;;;;;8.30;4.70;;;;;;;6.89;42.68;102748.50;5103708;28;20052;-60
2022/03/07 08:44:19;;;;;;;6.88;4.88;;;;;;;6.90;42.52;102745.69;5104331;28;20052;-59
2022/03/07 08:46:47;;;;;;;8.88;5.38;;;;;;;6.94;42.50;102752.38;5100132;28;20070;-59
2022/03/07 08:49:15;;;;;;;6.25;4.88;;;;;;;6.93;42.64;102744.56;5103722;28;20070;-60
2022/03/07 08:51:44;;;;;;;7.90;5.47;;;;;;;6.89;42.96;102745.84;5102877;28;20071;-60
2022/03/07 08:54:14;;;;;;;6.38;4.50;;;;;;;6.82;42.91;102745.59;5104195;28;20051;-59
2022/03/07 08:56:43;;;;;;;15.48;5.20;;;;;;;6.68;43.12;102738.94;5097304;28;20055;-60
2022/03/07 08:59:11;;;;;;;7.13;4.13;;;;;;;6.53;43.67;102735.94;5098448;28;20047;-60
2022/03/07 09:01:38;;;;;;;7.65;4.57;;;;;;;6.38;44.07;102732.06;5099368;28;20048;-59
2022/03/07 09:04:06;;;;;;;5.93;4.57;;;;;;;6.28;44.37;102733.94;5103789;28;20074;-60
2022/03/07 09:06:34;;;;;;;8.98;4.40;;;;;;;6.18;44.19;102722.47;5104856;28;20073;-60
2022/03/07 09:09:02;;;;;;;9.40;4.55;;;;;;;6.14;44.82;102731.75;5092343;28;20048;-59
2022/03/07 09:11:51;;;;;;;7.72;4.75;;;;;;;6.07;45.11;102725.31;5099061;28;20135;-60
2022/03/07 09:14:19;;;;;;;7.35;4.90;;;;;;;6.02;45.26;102719.56;5096225;28;20052;-60
2022/03/07 09:16:48;;;;;;;6.85;4.75;;;;;;;5.98;44.99;102719.03;5103352;28;20048;-60
2022/03/07 09:19:16;;;;;;;8.40;3.92;;;;;;;5.92;45.10;102732.13;5092164;28;20040;-60
2022/03/07 09:21:43;;;;;;;7.18;4.07;;;;;;;5.90;45.22;102724.25;5104047;28;20044;-60
2022/03/07 09:24:11;;;;;;;5.88;3.90;;;;;;;5.90;45.68;102726.09;5103680;28;20051;-60
2022/03/07 09:26:39;;;;;;;5.53;3.83;;;;;;;5.90;45.78;102729.59;5103268;28;20075;-60
2022/03/07 09:29:10;;;;;;;5.25;3.35;;;;;;;5.98;45.35;102726.19;5102621;28;20469;-60
2022/03/07 09:31:38;;;;;;;5.50;3.63;;;;;;;6.15;45.23;102712.91;5103907;28;20058;-59
2022/03/07 09:34:06;;;;;;;5.90;3.65;;;;;;;6.31;45.03;102720.31;5103112;28;20401;-60
2022/03/07 09:36:36;;;;;;;6.68;3.45;;;;;;;6.46;44.16;102723.31;5094215;28;20117;-62
2022/03/07 09:39:04;;;;;;;4.50;3.45;;;;;;;6.62;43.95;102715.50;5102642;28;20044;-61
2022/03/07 09:41:32;;;;;;;6.45;4.43;;;;;;;6.80;43.65;102711.00;5097482;28;20044;-60
2022/03/07 09:43:59;;;;;;;9.82;3.63;;;;;;;6.97;43.45;102711.16;5103537;28;20064;-61
2022/03/07 09:46:29;;;;;;;5.43;3.75;;;;;;;7.09;43.24;102712.59;5099793;28;20075;-61
2022/03/07 09:48:57;;;;;;;6.38;3.58;;;;;;;7.11;43.24;102711.44;5102948;28;20072;-60
2022/03/07 09:51:25;;;;;;;4.60;3.55;;;;;;;7.00;43.59;102708.16;5102040;28;20048;-61
2022/03/07 09:53:52;;;;;;;8.90;3.70;;;;;;;6.86;43.79;102706.91;5103583;28;20058;-60
2022/03/07 09:56:20;;;;;;;5.57;2.75;;;;;;;6.76;43.92;102703.44;5099537;28;20436;-60
2022/03/07 09:58:48;;;;;;;4.38;3.15;;;;;;;6.63;44.23;102709.16;5103770;28;20048;-59
2022/03/07 10:01:19;;;;;;;4.45;3.00;;;;;;;6.58;44.32;102705.25;5094071;28;20079;-61
2022/03/07 10:03:53;;;;;;;4.55;3.08;;;;;;;6.52;44.71;102702.19;5103535;28;20052;-61
2022/03/07 10:06:21;;;;;;;6.82;3.15;;;;;;;6.48;44.68;102698.16;5102498;28;20048;-61
2022/03/07 10:08:53;;;;;;;4.53;2.85;;;;;;;6.46;44.88;102694.78;5102438;28;20044;-59
2022/03/07 10:11:22;;;;;;;4.50;2.70;;;;;;;6.43;45.21;102692.41;5097728;28;20051;-61
2022/03/07 10:13:51;;;;;;;4.60;3.10;;;;;;;6.42;45.45;102689.88;5102884;28;20680;-60
2022/03/07 10:16:20;;;;;;;4.35;2.53;;;;;;;6.40;45.26;102683.84;5103254;28;20052;-59
2022/03/07 10:18:51;;;;;;;5.82;3.42;;;;;;;6.38;45.55;102675.16;5093102;28;20052;-60
2022/03/07 10:21:24;;;;;;;5.15;2.92;;;;;;;6.31;45.16;102674.91;5099047;28;20497;-59
2022/03/07 10:23:53;;;;;;;3.53;2.35;;;;;;;6.34;45.05;102671.09;5100683;28;20052;-59
2022/03/07 10:26:21;;;;;;;3.80;2.72;;;;;;;6.34;45.34;102673.78;5102203;28;20091;-60
2022/03/07 10:28:54;;;;;;;4.78;2.47;;;;;;;6.36;45.44;102669.13;5102332;28;20060;-60
2022/03/07 10:31:34;;;;;;;3.53;2.40;;;;;;;6.36;45.62;102669.97;5099868;28;20072;-60
2022/03/07 10:34:07;;;;;;;4.55;2.53;;;;;;;6.36;45.47;102674.47;5102136;28;20083;-60
2022/03/07 10:36:36;;;;;;;3.22;2.08;;;;;;;6.35;45.61;102670.94;5099656;28;20055;-60
2022/03/07 10:39:06;;;;;;;4.28;2.28;;;;;;;6.35;45.78;102668.28;5102094;28;20048;-60
2022/03/07 10:41:38;;;;;;;3.78;2.60;;;;;;;6.38;45.98;102664.47;5102252;28;20055;-60
2022/03/07 10:44:23;;;;;;;4.95;2.88;;;;;;;6.41;45.76;102666.84;5101634;28;20054;-64
2022/03/07 10:46:51;;;;;;;3.35;2.40;;;;;;;6.44;45.98;102662.03;5103865;28;20052;-61
2022/03/07 10:49:20;;;;;;;3.97;2.35;;;;;;;6.46;45.82;102654.72;5106292;28;20083;-62
2022/03/07 10:51:52;;;;;;;4.57;2.47;;;;;;;6.42;45.34;102649.81;5104338;28;20097;-61
2022/03/07 10:54:21;;;;;;;4.20;2.20;;;;;;;6.43;46.03;102649.69;5099211;28;20060;-62
2022/03/07 10:56:50;;;;;;;3.47;2.00;;;;;;;6.47;46.35;102645.72;5102906;28;20193;-60
2022/03/07 10:59:28;;;;;;;2.60;1.98;;;;;;;6.50;45.79;102639.22;5106204;28;20044;-60
2022/03/07 11:02:01;;;;;;;4.03;2.28;;;;;;;6.51;45.95;102631.06;5105424;28;20043;-59
2022/03/07 11:04:31;;;;;;;3.08;2.15;;;;;;;6.59;46.29;102638.31;5101603;28;20070;-59
2022/03/07 11:06:58;;;;;;;4.82;2.25;;;;;;;6.65;46.01;102624.34;5099962;28;20052;-61
2022/03/07 11:09:27;;;;;;;4.57;2.20;;;;;;;6.65;45.66;102624.34;5104844;28;20055;-59
2022/03/07 11:11:55;;;;;;;4.63;2.00;;;;;;;6.68;45.95;102620.53;5102902;28;20061;-59
2022/03/07 11:14:27;;;;;;;2.95;1.95;;;;;;;6.69;46.10;102620.38;5102970;28;20055;-60
2022/03/07 11:16:56;;;;;;;5.00;2.35;;;;;;;6.76;46.17;102625.97;5103643;28;20151;-60
2022/03/07 11:19:25;;;;;;;3.38;1.77;;;;;;;6.80;46.36;102614.81;5103731;28;20071;-59
2022/03/07 11:21:56;;;;;;;4.45;2.30;;;;;;;6.84;46.19;102613.50;5106437;28;20180;-60
2022/03/07 11:24:27;;;;;;;5.28;2.22;;;;;;;6.85;46.14;102609.00;5100702;28;20056;-59
2022/03/07 11:26:57;;;;;;;3.22;2.08;;;;;;;6.84;45.95;102605.50;5104005;28;20044;-59
2022/03/07 11:29:34;;;;;;;3.85;2.33;;;;;;;6.89;46.25;102607.72;5105852;28;20105;-59
2022/03/07 11:32:03;;;;;;;5.15;2.53;;;;;;;6.93;46.22;102595.72;5099703;28;20516;-59
2022/03/07 11:34:32;;;;;;;7.03;2.35;;;;;;;6.96;46.03;102595.38;5098419;28;20040;-59
2022/03/07 11:37:01;;;;;;;4.30;2.00;;;;;;;6.99;46.14;102591.53;5097897;28;20117;-60
2022/03/07 11:39:32;;;;;;;5.75;2.45;;;;;;;6.99;46.00;102581.69;5103345;28;20088;-60